sensor_id;sensor_type;location;lat;lon;timestamp;temperature;humidity
25933;DHT22;13731;51.166;4.474;2024-01-11T00:00:43;-2.70;99.90
25933;DHT22;13731;51.166;4.474;2024-01-11T00:03:08;-2.60;99.90
25933;DHT22;13731;51.166;4.474;2024-01-11T00:05:35;-2.50;99.90
25933;DHT22;13731;51.166;4.474;2024-01-11T00:08:01;-2.50;99.90
25933;DHT22;13731;51.166;4.474;2024-01-11T00:10:27;-2.30;99.90
25933;DHT22;13731;51.166;4.474;2024-01-11T00:12:52;-2.40;99.90
25933;DHT22;13731;51.166;4.474;2024-01-11T00:15:19;-2.50;99.90
25933;DHT22;13731;51.166;4.474;2024-01-11T00:17:45;-2.50;99.90
25933;DHT22;13731;51.166;4.474;2024-01-11T00:20:11;-2.60;99.90
25933;DHT22;13731;51.166;4.474;2024-01-11T00:22:37;-2.60;99.90
25933;DHT22;13731;51.166;4.474;2024-01-11T00:25:03;-2.80;99.90
25933;DHT22;13731;51.166;4.474;2024-01-11T00:27:29;-2.70;99.90
25933;DHT22;13731;51.166;4.474;2024-01-11T00:29:55;-2.70;99.90
25933;DHT22;13731;51.166;4.474;2024-01-11T00:32:23;-2.60;99.90
25933;DHT22;13731;51.166;4.474;2024-01-11T00:34:50;-2.60;99.90
25933;DHT22;13731;51.166;4.474;2024-01-11T00:37:17;-2.50;99.90
25933;DHT22;13731;51.166;4.474;2024-01-11T00:39:43;-2.60;99.90
25933;DHT22;13731;51.166;4.474;2024-01-11T00:42:09;-2.60;99.90
25933;DHT22;13731;51.166;4.474;2024-01-11T00:44:35;-2.50;99.90
25933;DHT22;13731;51.166;4.474;2024-01-11T00:47:01;-2.60;99.90
25933;DHT22;13731;51.166;4.474;2024-01-11T00:49:27;-2.50;99.90
25933;DHT22;13731;51.166;4.474;2024-01-11T00:51:54;-2.60;99.90
25933;DHT22;13731;51.166;4.474;2024-01-11T00:54:20;-2.70;99.90
25933;DHT22;13731;51.166;4.474;2024-01-11T00:56:46;-2.90;99.90
25933;DHT22;13731;51.166;4.474;2024-01-11T00:59:13;-3.10;99.90
25933;DHT22;13731;51.166;4.474;2024-01-11T01:01:38;-3.10;99.90
25933;DHT22;13731;51.166;4.474;2024-01-11T01:04:04;-3.20;99.90
25933;DHT22;13731;51.166;4.474;2024-01-11T01:06:30;-3.30;99.90
25933;DHT22;13731;51.166;4.474;2024-01-11T01:08:56;-3.30;99.90
25933;DHT22;13731;51.166;4.474;2024-01-11T01:11:22;-3.30;99.90
25933;DHT22;13731;51.166;4.474;2024-01-11T01:13:47;-3.30;99.90
25933;DHT22;13731;51.166;4.474;2024-01-11T01:16:13;-3.30;99.90
25933;DHT22;13731;51.166;4.474;2024-01-11T01:18:40;-3.20;99.90
25933;DHT22;13731;51.166;4.474;2024-01-11T01:21:06;-3.00;99.90
25933;DHT22;13731;51.166;4.474;2024-01-11T01:23:32;-2.70;99.90
25933;DHT22;13731;51.166;4.474;2024-01-11T01:25:58;-2.70;99.90
25933;DHT22;13731;51.166;4.474;2024-01-11T01:28:24;-2.70;99.90
25933;DHT22;13731;51.166;4.474;2024-01-11T01:30:51;-2.70;99.90
25933;DHT22;13731;51.166;4.474;2024-01-11T01:33:17;-2.70;99.90
25933;DHT22;13731;51.166;4.474;2024-01-11T01:35:44;-2.80;99.90
25933;DHT22;13731;51.166;4.474;2024-01-11T01:38:12;-2.90;99.90
25933;DHT22;13731;51.166;4.474;2024-01-11T01:40:38;-2.90;99.90
25933;DHT22;13731;51.166;4.474;2024-01-11T01:43:07;-2.90;99.90
25933;DHT22;13731;51.166;4.474;2024-01-11T01:45:35;-3.10;99.90
25933;DHT22;13731;51.166;4.474;2024-01-11T01:48:01;-3.20;99.90
25933;DHT22;13731;51.166;4.474;2024-01-11T01:50:28;-3.40;99.90
25933;DHT22;13731;51.166;4.474;2024-01-11T01:52:54;-3.40;99.90
25933;DHT22;13731;51.166;4.474;2024-01-11T01:55:22;-3.30;99.90
25933;DHT22;13731;51.166;4.474;2024-01-11T01:57:50;-3.40;99.90
25933;DHT22;13731;51.166;4.474;2024-01-11T02:00:17;-3.40;99.90
25933;DHT22;13731;51.166;4.474;2024-01-11T02:02:44;-3.30;99.90
25933;DHT22;13731;51.166;4.474;2024-01-11T02:05:13;-3.30;99.90
25933;DHT22;13731;51.166;4.474;2024-01-11T02:07:40;-3.30;99.90
25933;DHT22;13731;51.166;4.474;2024-01-11T02:10:07;-3.30;99.90
25933;DHT22;13731;51.166;4.474;2024-01-11T02:12:35;-3.50;99.90
25933;DHT22;13731;51.166;4.474;2024-01-11T02:15:02;-3.30;99.90
25933;DHT22;13731;51.166;4.474;2024-01-11T02:17:30;-3.30;99.90
25933;DHT22;13731;51.166;4.474;2024-01-11T02:19:56;-3.50;99.90
25933;DHT22;13731;51.166;4.474;2024-01-11T02:22:27;-3.60;1.00
25933;DHT22;13731;51.166;4.474;2024-01-11T02:24:55;-3.70;1.00
25933;DHT22;13731;51.166;4.474;2024-01-11T02:27:23;-3.70;1.00
25933;DHT22;13731;51.166;4.474;2024-01-11T02:29:49;-3.70;1.00
25933;DHT22;13731;51.166;4.474;2024-01-11T02:32:15;-3.60;1.00
25933;DHT22;13731;51.166;4.474;2024-01-11T02:34:41;-3.60;1.00
25933;DHT22;13731;51.166;4.474;2024-01-11T02:37:08;-3.70;1.00
25933;DHT22;13731;51.166;4.474;2024-01-11T02:39:33;-3.60;1.00
25933;DHT22;13731;51.166;4.474;2024-01-11T02:42:00;-3.70;1.00
25933;DHT22;13731;51.166;4.474;2024-01-11T02:44:26;-3.70;1.00
25933;DHT22;13731;51.166;4.474;2024-01-11T02:46:52;-3.50;1.00
25933;DHT22;13731;51.166;4.474;2024-01-11T02:49:18;-3.60;1.00
25933;DHT22;13731;51.166;4.474;2024-01-11T02:51:44;-3.70;1.00
25933;DHT22;13731;51.166;4.474;2024-01-11T02:54:11;-3.80;1.00
25933;DHT22;13731;51.166;4.474;2024-01-11T02:56:37;-3.60;1.00
25933;DHT22;13731;51.166;4.474;2024-01-11T02:59:03;-3.70;1.00
25933;DHT22;13731;51.166;4.474;2024-01-11T03:01:29;-3.80;1.00
25933;DHT22;13731;51.166;4.474;2024-01-11T03:03:56;-3.90;1.00
25933;DHT22;13731;51.166;4.474;2024-01-11T03:06:22;-4.00;1.00
25933;DHT22;13731;51.166;4.474;2024-01-11T03:08:48;-4.00;1.00
25933;DHT22;13731;51.166;4.474;2024-01-11T03:11:15;-4.00;1.00
25933;DHT22;13731;51.166;4.474;2024-01-11T03:13:42;-4.00;1.00
25933;DHT22;13731;51.166;4.474;2024-01-11T03:16:07;-3.90;1.00
25933;DHT22;13731;51.166;4.474;2024-01-11T03:18:33;-3.70;1.00
25933;DHT22;13731;51.166;4.474;2024-01-11T03:20:59;-3.60;1.00
25933;DHT22;13731;51.166;4.474;2024-01-11T03:23:25;-3.70;1.00
25933;DHT22;13731;51.166;4.474;2024-01-11T03:25:51;-3.90;1.00
25933;DHT22;13731;51.166;4.474;2024-01-11T03:28:17;-3.90;1.00
25933;DHT22;13731;51.166;4.474;2024-01-11T03:30:43;-4.00;1.00
25933;DHT22;13731;51.166;4.474;2024-01-11T03:33:09;-4.00;1.00
25933;DHT22;13731;51.166;4.474;2024-01-11T03:35:35;-4.00;1.00
25933;DHT22;13731;51.166;4.474;2024-01-11T03:38:05;-3.90;1.00
25933;DHT22;13731;51.166;4.474;2024-01-11T03:40:31;-3.80;1.00
25933;DHT22;13731;51.166;4.474;2024-01-11T03:42:57;-3.90;1.00
25933;DHT22;13731;51.166;4.474;2024-01-11T03:45:22;-3.90;1.00
25933;DHT22;13731;51.166;4.474;2024-01-11T03:47:50;-4.00;1.00
25933;DHT22;13731;51.166;4.474;2024-01-11T03:50:16;-4.00;1.00
25933;DHT22;13731;51.166;4.474;2024-01-11T03:52:43;-4.00;1.00
25933;DHT22;13731;51.166;4.474;2024-01-11T03:55:09;-4.00;1.00
25933;DHT22;13731;51.166;4.474;2024-01-11T03:57:35;-3.90;1.00
25933;DHT22;13731;51.166;4.474;2024-01-11T04:00:01;-4.00;1.00
25933;DHT22;13731;51.166;4.474;2024-01-11T04:02:27;-4.00;1.00
25933;DHT22;13731;51.166;4.474;2024-01-11T04:04:53;-4.10;1.00
25933;DHT22;13731;51.166;4.474;2024-01-11T04:07:19;-4.00;1.00
25933;DHT22;13731;51.166;4.474;2024-01-11T04:09:45;-4.10;1.00
25933;DHT22;13731;51.166;4.474;2024-01-11T04:12:11;-4.10;1.00
25933;DHT22;13731;51.166;4.474;2024-01-11T04:14:40;-4.20;1.00
25933;DHT22;13731;51.166;4.474;2024-01-11T04:17:06;-4.10;1.00
25933;DHT22;13731;51.166;4.474;2024-01-11T04:19:32;-4.00;1.00
25933;DHT22;13731;51.166;4.474;2024-01-11T04:21:58;-4.00;1.00
25933;DHT22;13731;51.166;4.474;2024-01-11T04:24:24;-4.00;1.00
25933;DHT22;13731;51.166;4.474;2024-01-11T04:26:50;-4.00;1.00
25933;DHT22;13731;51.166;4.474;2024-01-11T04:29:16;-4.00;1.00
25933;DHT22;13731;51.166;4.474;2024-01-11T04:31:43;-4.10;1.00
25933;DHT22;13731;51.166;4.474;2024-01-11T04:34:09;-4.10;1.00
25933;DHT22;13731;51.166;4.474;2024-01-11T04:36:37;-4.10;1.00
25933;DHT22;13731;51.166;4.474;2024-01-11T04:39:04;-4.10;1.00
25933;DHT22;13731;51.166;4.474;2024-01-11T04:41:31;-4.20;1.00
25933;DHT22;13731;51.166;4.474;2024-01-11T04:43:57;-4.20;1.00
25933;DHT22;13731;51.166;4.474;2024-01-11T04:46:23;-4.10;1.00
25933;DHT22;13731;51.166;4.474;2024-01-11T04:48:49;-4.10;1.00
25933;DHT22;13731;51.166;4.474;2024-01-11T04:51:16;-4.10;1.00
25933;DHT22;13731;51.166;4.474;2024-01-11T04:53:43;-4.00;1.00
25933;DHT22;13731;51.166;4.474;2024-01-11T04:56:11;-4.00;1.00
25933;DHT22;13731;51.166;4.474;2024-01-11T04:58:40;-4.10;1.00
25933;DHT22;13731;51.166;4.474;2024-01-11T05:01:12;-4.10;1.00
25933;DHT22;13731;51.166;4.474;2024-01-11T05:03:38;-4.20;1.00
25933;DHT22;13731;51.166;4.474;2024-01-11T05:06:04;-4.30;25.00
25933;DHT22;13731;51.166;4.474;2024-01-11T05:08:29;-4.20;39.70
25933;DHT22;13731;51.166;4.474;2024-01-11T05:10:56;-4.20;55.00
25933;DHT22;13731;51.166;4.474;2024-01-11T05:13:23;-4.30;69.50
25933;DHT22;13731;51.166;4.474;2024-01-11T05:15:49;-4.30;99.90
25933;DHT22;13731;51.166;4.474;2024-01-11T05:18:15;-4.30;99.90
25933;DHT22;13731;51.166;4.474;2024-01-11T05:20:41;-4.30;99.90
25933;DHT22;13731;51.166;4.474;2024-01-11T05:23:07;-4.30;99.90
25933;DHT22;13731;51.166;4.474;2024-01-11T05:25:32;-4.30;99.90
25933;DHT22;13731;51.166;4.474;2024-01-11T05:28:02;-4.30;99.90
25933;DHT22;13731;51.166;4.474;2024-01-11T05:30:30;-4.20;99.90
25933;DHT22;13731;51.166;4.474;2024-01-11T05:32:57;-4.30;99.90
25933;DHT22;13731;51.166;4.474;2024-01-11T05:35:23;-4.30;99.90
25933;DHT22;13731;51.166;4.474;2024-01-11T05:37:50;-4.20;99.90
25933;DHT22;13731;51.166;4.474;2024-01-11T05:40:17;-4.00;99.90
25933;DHT22;13731;51.166;4.474;2024-01-11T05:42:43;-4.00;37.00
25933;DHT22;13731;51.166;4.474;2024-01-11T05:45:09;-3.90;10.10
25933;DHT22;13731;51.166;4.474;2024-01-11T05:47:34;-3.80;1.00
25933;DHT22;13731;51.166;4.474;2024-01-11T05:50:01;-3.70;1.00
25933;DHT22;13731;51.166;4.474;2024-01-11T05:52:28;-3.70;1.00
25933;DHT22;13731;51.166;4.474;2024-01-11T05:54:55;-3.90;1.00
25933;DHT22;13731;51.166;4.474;2024-01-11T05:57:21;-4.00;1.00
25933;DHT22;13731;51.166;4.474;2024-01-11T05:59:47;-4.00;1.00
25933;DHT22;13731;51.166;4.474;2024-01-11T06:02:13;-4.10;4.90
25933;DHT22;13731;51.166;4.474;2024-01-11T06:04:39;-4.20;71.00
25933;DHT22;13731;51.166;4.474;2024-01-11T06:07:05;-4.30;99.90
25933;DHT22;13731;51.166;4.474;2024-01-11T06:09:32;-4.30;99.90
25933;DHT22;13731;51.166;4.474;2024-01-11T06:11:58;-4.40;99.90
25933;DHT22;13731;51.166;4.474;2024-01-11T06:14:25;-4.40;99.90
25933;DHT22;13731;51.166;4.474;2024-01-11T06:16:51;-4.30;99.90
25933;DHT22;13731;51.166;4.474;2024-01-11T06:19:17;-4.30;99.90
25933;DHT22;13731;51.166;4.474;2024-01-11T06:21:43;-4.10;99.90
25933;DHT22;13731;51.166;4.474;2024-01-11T06:24:09;-4.00;99.90
25933;DHT22;13731;51.166;4.474;2024-01-11T06:26:35;-3.90;56.60
25933;DHT22;13731;51.166;4.474;2024-01-11T06:29:01;-4.10;35.10
25933;DHT22;13731;51.166;4.474;2024-01-11T06:31:27;-4.20;99.20
25933;DHT22;13731;51.166;4.474;2024-01-11T06:33:52;-4.20;99.90
25933;DHT22;13731;51.166;4.474;2024-01-11T06:36:18;-4.30;99.90
25933;DHT22;13731;51.166;4.474;2024-01-11T06:38:44;-4.10;99.90
25933;DHT22;13731;51.166;4.474;2024-01-11T06:41:10;-4.00;23.30
25933;DHT22;13731;51.166;4.474;2024-01-11T06:43:36;-3.90;13.00
25933;DHT22;13731;51.166;4.474;2024-01-11T06:46:06;-3.80;1.00
25933;DHT22;13731;51.166;4.474;2024-01-11T06:48:34;-4.00;1.00
25933;DHT22;13731;51.166;4.474;2024-01-11T06:51:00;-4.20;42.00
25933;DHT22;13731;51.166;4.474;2024-01-11T06:53:26;-4.20;91.50
25933;DHT22;13731;51.166;4.474;2024-01-11T06:55:52;-3.80;57.40
25933;DHT22;13731;51.166;4.474;2024-01-11T06:58:21;-3.80;1.00
25933;DHT22;13731;51.166;4.474;2024-01-11T07:00:50;-3.80;1.00
25933;DHT22;13731;51.166;4.474;2024-01-11T07:03:17;-3.70;1.00
25933;DHT22;13731;51.166;4.474;2024-01-11T07:05:44;-3.60;1.00
25933;DHT22;13731;51.166;4.474;2024-01-11T07:08:10;-3.60;1.00
25933;DHT22;13731;51.166;4.474;2024-01-11T07:10:36;-3.80;1.00
25933;DHT22;13731;51.166;4.474;2024-01-11T07:13:03;-3.80;1.00
25933;DHT22;13731;51.166;4.474;2024-01-11T07:15:29;-3.90;1.00
25933;DHT22;13731;51.166;4.474;2024-01-11T07:17:55;-3.90;1.00
25933;DHT22;13731;51.166;4.474;2024-01-11T07:20:21;-3.90;1.00
25933;DHT22;13731;51.166;4.474;2024-01-11T07:22:46;-4.10;1.00
25933;DHT22;13731;51.166;4.474;2024-01-11T07:25:12;-4.00;1.00
25933;DHT22;13731;51.166;4.474;2024-01-11T07:27:39;-4.10;24.70
25933;DHT22;13731;51.166;4.474;2024-01-11T07:30:06;-4.00;15.30
25933;DHT22;13731;51.166;4.474;2024-01-11T07:32:32;-4.20;6.70
25933;DHT22;13731;51.166;4.474;2024-01-11T07:34:58;-4.20;77.80
25933;DHT22;13731;51.166;4.474;2024-01-11T07:37:24;-4.30;53.30
25933;DHT22;13731;51.166;4.474;2024-01-11T07:39:51;-4.40;99.90
25933;DHT22;13731;51.166;4.474;2024-01-11T07:42:17;-4.20;99.90
25933;DHT22;13731;51.166;4.474;2024-01-11T07:44:44;-4.30;99.90
25933;DHT22;13731;51.166;4.474;2024-01-11T07:47:10;-4.60;99.90
25933;DHT22;13731;51.166;4.474;2024-01-11T07:49:37;-4.60;99.90
25933;DHT22;13731;51.166;4.474;2024-01-11T07:52:03;-4.40;99.90
25933;DHT22;13731;51.166;4.474;2024-01-11T07:54:30;-4.30;99.90
25933;DHT22;13731;51.166;4.474;2024-01-11T07:56:57;-4.10;99.90
25933;DHT22;13731;51.166;4.474;2024-01-11T07:59:22;-4.00;1.10
25933;DHT22;13731;51.166;4.474;2024-01-11T08:01:48;-4.20;1.00
25933;DHT22;13731;51.166;4.474;2024-01-11T08:04:18;-4.30;46.10
25933;DHT22;13731;51.166;4.474;2024-01-11T08:06:46;-4.40;99.90
25933;DHT22;13731;51.166;4.474;2024-01-11T08:09:12;-4.40;99.90
25933;DHT22;13731;51.166;4.474;2024-01-11T08:11:39;-4.40;99.90
25933;DHT22;13731;51.166;4.474;2024-01-11T08:14:06;-4.50;99.90
25933;DHT22;13731;51.166;4.474;2024-01-11T08:16:32;-4.40;99.90
25933;DHT22;13731;51.166;4.474;2024-01-11T08:18:59;-4.50;99.90
25933;DHT22;13731;51.166;4.474;2024-01-11T08:21:26;-4.50;99.90
25933;DHT22;13731;51.166;4.474;2024-01-11T08:23:54;-4.50;99.90
25933;DHT22;13731;51.166;4.474;2024-01-11T08:26:20;-4.40;99.90
25933;DHT22;13731;51.166;4.474;2024-01-11T08:28:48;-4.30;99.90
25933;DHT22;13731;51.166;4.474;2024-01-11T08:31:13;-4.30;99.90
25933;DHT22;13731;51.166;4.474;2024-01-11T08:33:39;-4.30;99.90
25933;DHT22;13731;51.166;4.474;2024-01-11T08:36:06;-4.20;99.90
25933;DHT22;13731;51.166;4.474;2024-01-11T08:38:39;-4.10;99.90
25933;DHT22;13731;51.166;4.474;2024-01-11T08:41:06;-4.20;99.90
25933;DHT22;13731;51.166;4.474;2024-01-11T08:43:32;-4.20;99.90
25933;DHT22;13731;51.166;4.474;2024-01-11T08:46:02;-4.30;99.90
25933;DHT22;13731;51.166;4.474;2024-01-11T08:48:28;-4.30;99.90
25933;DHT22;13731;51.166;4.474;2024-01-11T08:50:54;-4.20;99.90
25933;DHT22;13731;51.166;4.474;2024-01-11T08:53:20;-4.20;99.90
25933;DHT22;13731;51.166;4.474;2024-01-11T08:55:47;-4.20;99.90
25933;DHT22;13731;51.166;4.474;2024-01-11T08:58:13;-3.90;99.90
25933;DHT22;13731;51.166;4.474;2024-01-11T09:00:39;-3.90;99.90
25933;DHT22;13731;51.166;4.474;2024-01-11T09:03:05;-3.80;99.90
25933;DHT22;13731;51.166;4.474;2024-01-11T09:05:31;-3.80;99.90
25933;DHT22;13731;51.166;4.474;2024-01-11T09:07:57;-3.60;99.90
25933;DHT22;13731;51.166;4.474;2024-01-11T09:10:23;-3.30;1.00
25933;DHT22;13731;51.166;4.474;2024-01-11T09:12:49;-3.30;1.00
25933;DHT22;13731;51.166;4.474;2024-01-11T09:15:15;-3.20;1.00
25933;DHT22;13731;51.166;4.474;2024-01-11T09:17:40;-3.00;1.00
25933;DHT22;13731;51.166;4.474;2024-01-11T09:20:07;-3.00;1.00
25933;DHT22;13731;51.166;4.474;2024-01-11T09:22:33;-3.10;1.00
25933;DHT22;13731;51.166;4.474;2024-01-11T09:24:58;-3.10;1.00
25933;DHT22;13731;51.166;4.474;2024-01-11T09:27:26;-3.10;1.00
25933;DHT22;13731;51.166;4.474;2024-01-11T09:29:53;-3.00;1.00
25933;DHT22;13731;51.166;4.474;2024-01-11T09:32:18;-3.00;1.00
25933;DHT22;13731;51.166;4.474;2024-01-11T09:34:45;-2.70;1.00
25933;DHT22;13731;51.166;4.474;2024-01-11T09:37:11;-2.60;1.00
25933;DHT22;13731;51.166;4.474;2024-01-11T09:39:37;-2.70;1.00
25933;DHT22;13731;51.166;4.474;2024-01-11T09:42:07;-2.50;1.00
25933;DHT22;13731;51.166;4.474;2024-01-11T09:44:36;-2.10;1.00
25933;DHT22;13731;51.166;4.474;2024-01-11T09:47:04;-2.00;99.90
25933;DHT22;13731;51.166;4.474;2024-01-11T09:49:33;-2.20;99.90
25933;DHT22;13731;51.166;4.474;2024-01-11T09:52:00;-2.20;99.90
25933;DHT22;13731;51.166;4.474;2024-01-11T09:54:27;-2.30;99.90
25933;DHT22;13731;51.166;4.474;2024-01-11T09:56:58;-2.20;1.00
25933;DHT22;13731;51.166;4.474;2024-01-11T09:59:24;-1.80;99.90
25933;DHT22;13731;51.166;4.474;2024-01-11T10:01:51;-1.60;99.90
25933;DHT22;13731;51.166;4.474;2024-01-11T10:04:18;-1.00;99.90
25933;DHT22;13731;51.166;4.474;2024-01-11T10:06:44;0.10;99.90
25933;DHT22;13731;51.166;4.474;2024-01-11T10:09:10;1.50;99.90
25933;DHT22;13731;51.166;4.474;2024-01-11T10:11:37;2.70;99.90
25933;DHT22;13731;51.166;4.474;2024-01-11T10:14:03;3.70;77.20
25933;DHT22;13731;51.166;4.474;2024-01-11T10:16:31;3.80;45.50
25933;DHT22;13731;51.166;4.474;2024-01-11T10:18:57;4.30;22.00
25933;DHT22;13731;51.166;4.474;2024-01-11T10:21:24;4.60;14.20
25933;DHT22;13731;51.166;4.474;2024-01-11T10:23:51;4.00;8.50
25933;DHT22;13731;51.166;4.474;2024-01-11T10:26:19;3.40;6.90
25933;DHT22;13731;51.166;4.474;2024-01-11T10:28:45;3.30;6.20
25933;DHT22;13731;51.166;4.474;2024-01-11T10:31:12;2.80;10.30
25933;DHT22;13731;51.166;4.474;2024-01-11T10:33:38;3.20;12.70
25933;DHT22;13731;51.166;4.474;2024-01-11T10:36:05;3.10;9.70
25933;DHT22;13731;51.166;4.474;2024-01-11T10:38:35;3.00;10.90
25933;DHT22;13731;51.166;4.474;2024-01-11T10:41:06;3.00;10.30
25933;DHT22;13731;51.166;4.474;2024-01-11T10:43:37;2.60;10.30
25933;DHT22;13731;51.166;4.474;2024-01-11T10:46:04;2.00;13.00
25933;DHT22;13731;51.166;4.474;2024-01-11T10:48:37;1.60;16.50
25933;DHT22;13731;51.166;4.474;2024-01-11T10:51:05;1.30;23.00
25933;DHT22;13731;51.166;4.474;2024-01-11T10:53:41;1.40;27.00
25933;DHT22;13731;51.166;4.474;2024-01-11T10:56:12;1.80;28.00
25933;DHT22;13731;51.166;4.474;2024-01-11T10:58:40;2.20;28.00
25933;DHT22;13731;51.166;4.474;2024-01-11T11:01:08;2.50;22.10
25933;DHT22;13731;51.166;4.474;2024-01-11T11:03:36;2.40;20.80
25933;DHT22;13731;51.166;4.474;2024-01-11T11:06:05;2.30;22.00
25933;DHT22;13731;51.166;4.474;2024-01-11T11:08:31;2.40;20.10
25933;DHT22;13731;51.166;4.474;2024-01-11T11:10:58;2.80;11.60
25933;DHT22;13731;51.166;4.474;2024-01-11T11:13:25;2.40;15.70
25933;DHT22;13731;51.166;4.474;2024-01-11T11:15:54;2.80;16.50
25933;DHT22;13731;51.166;4.474;2024-01-11T11:18:24;3.10;13.10
25933;DHT22;13731;51.166;4.474;2024-01-11T11:20:51;3.60;12.60
25933;DHT22;13731;51.166;4.474;2024-01-11T11:23:18;4.40;8.80
25933;DHT22;13731;51.166;4.474;2024-01-11T11:25:49;5.00;1.00
25933;DHT22;13731;51.166;4.474;2024-01-11T11:28:17;4.60;1.00
25933;DHT22;13731;51.166;4.474;2024-01-11T11:30:45;4.20;1.00
25933;DHT22;13731;51.166;4.474;2024-01-11T11:33:22;4.70;1.00
25933;DHT22;13731;51.166;4.474;2024-01-11T11:35:51;5.30;1.00
25933;DHT22;13731;51.166;4.474;2024-01-11T11:38:18;6.30;1.00
25933;DHT22;13731;51.166;4.474;2024-01-11T11:40:47;7.20;1.00
25933;DHT22;13731;51.166;4.474;2024-01-11T11:43:17;6.90;1.00
25933;DHT22;13731;51.166;4.474;2024-01-11T11:45:49;7.70;1.00
25933;DHT22;13731;51.166;4.474;2024-01-11T11:51:15;8.30;1.00
25933;DHT22;13731;51.166;4.474;2024-01-11T11:53:41;8.40;1.00
25933;DHT22;13731;51.166;4.474;2024-01-11T11:56:08;8.80;1.00
25933;DHT22;13731;51.166;4.474;2024-01-11T11:58:39;9.00;1.00
25933;DHT22;13731;51.166;4.474;2024-01-11T12:01:05;9.40;1.00
25933;DHT22;13731;51.166;4.474;2024-01-11T12:03:35;9.90;1.00
25933;DHT22;13731;51.166;4.474;2024-01-11T12:06:06;9.60;1.00
25933;DHT22;13731;51.166;4.474;2024-01-11T12:08:32;9.20;1.00
25933;DHT22;13731;51.166;4.474;2024-01-11T12:10:59;9.70;1.00
25933;DHT22;13731;51.166;4.474;2024-01-11T12:13:25;10.30;1.00
25933;DHT22;13731;51.166;4.474;2024-01-11T12:15:53;10.10;1.00
25933;DHT22;13731;51.166;4.474;2024-01-11T12:18:19;9.30;1.00
25933;DHT22;13731;51.166;4.474;2024-01-11T12:20:45;10.60;1.00
25933;DHT22;13731;51.166;4.474;2024-01-11T12:23:12;10.60;1.00
25933;DHT22;13731;51.166;4.474;2024-01-11T12:25:40;11.20;1.00
25933;DHT22;13731;51.166;4.474;2024-01-11T12:28:06;10.90;1.00
25933;DHT22;13731;51.166;4.474;2024-01-11T12:30:33;10.60;1.00
25933;DHT22;13731;51.166;4.474;2024-01-11T12:33:00;10.70;1.00
25933;DHT22;13731;51.166;4.474;2024-01-11T12:35:30;10.50;1.00
25933;DHT22;13731;51.166;4.474;2024-01-11T12:38:04;8.20;1.00
25933;DHT22;13731;51.166;4.474;2024-01-11T12:40:35;8.60;1.00
25933;DHT22;13731;51.166;4.474;2024-01-11T12:43:03;9.00;1.00
25933;DHT22;13731;51.166;4.474;2024-01-11T12:45:30;9.70;1.00
25933;DHT22;13731;51.166;4.474;2024-01-11T12:47:59;9.80;1.00
25933;DHT22;13731;51.166;4.474;2024-01-11T12:50:26;10.70;1.00
25933;DHT22;13731;51.166;4.474;2024-01-11T12:53:14;11.60;1.00
25933;DHT22;13731;51.166;4.474;2024-01-11T12:55:47;11.50;1.00
25933;DHT22;13731;51.166;4.474;2024-01-11T12:58:19;11.40;1.00
25933;DHT22;13731;51.166;4.474;2024-01-11T13:00:48;11.20;1.00
25933;DHT22;13731;51.166;4.474;2024-01-11T13:03:15;10.90;1.00
25933;DHT22;13731;51.166;4.474;2024-01-11T13:05:42;10.80;1.00
25933;DHT22;13731;51.166;4.474;2024-01-11T13:08:09;10.80;1.00
25933;DHT22;13731;51.166;4.474;2024-01-11T13:10:35;11.10;1.00
25933;DHT22;13731;51.166;4.474;2024-01-11T13:13:02;10.60;1.00
25933;DHT22;13731;51.166;4.474;2024-01-11T13:15:28;11.20;1.00
25933;DHT22;13731;51.166;4.474;2024-01-11T13:17:55;10.70;1.00
25933;DHT22;13731;51.166;4.474;2024-01-11T13:20:22;10.20;1.00
25933;DHT22;13731;51.166;4.474;2024-01-11T13:22:49;9.60;1.00
25933;DHT22;13731;51.166;4.474;2024-01-11T13:25:15;10.10;1.00
25933;DHT22;13731;51.166;4.474;2024-01-11T13:27:41;9.60;1.00
25933;DHT22;13731;51.166;4.474;2024-01-11T13:30:07;9.20;1.00
25933;DHT22;13731;51.166;4.474;2024-01-11T13:32:34;9.70;1.00
25933;DHT22;13731;51.166;4.474;2024-01-11T13:35:00;10.80;1.00
25933;DHT22;13731;51.166;4.474;2024-01-11T13:37:26;10.30;1.00
25933;DHT22;13731;51.166;4.474;2024-01-11T13:39:54;10.80;1.00
25933;DHT22;13731;51.166;4.474;2024-01-11T13:42:20;10.60;1.00
25933;DHT22;13731;51.166;4.474;2024-01-11T13:44:46;8.80;1.00
25933;DHT22;13731;51.166;4.474;2024-01-11T13:47:12;7.80;1.00
25933;DHT22;13731;51.166;4.474;2024-01-11T13:49:39;7.10;1.00
25933;DHT22;13731;51.166;4.474;2024-01-11T13:52:04;8.20;1.00
25933;DHT22;13731;51.166;4.474;2024-01-11T13:54:32;9.20;1.00
25933;DHT22;13731;51.166;4.474;2024-01-11T13:56:58;8.80;1.00
25933;DHT22;13731;51.166;4.474;2024-01-11T13:59:24;8.70;1.00
25933;DHT22;13731;51.166;4.474;2024-01-11T14:01:50;8.00;1.00
25933;DHT22;13731;51.166;4.474;2024-01-11T14:04:15;7.70;1.00
25933;DHT22;13731;51.166;4.474;2024-01-11T14:06:41;6.40;1.00
25933;DHT22;13731;51.166;4.474;2024-01-11T14:09:07;5.90;1.00
25933;DHT22;13731;51.166;4.474;2024-01-11T14:11:35;5.20;1.00
25933;DHT22;13731;51.166;4.474;2024-01-11T14:14:04;4.30;1.00
25933;DHT22;13731;51.166;4.474;2024-01-11T14:16:30;3.70;1.00
25933;DHT22;13731;51.166;4.474;2024-01-11T14:18:56;3.80;1.00
25933;DHT22;13731;51.166;4.474;2024-01-11T14:21:22;3.50;1.00
25933;DHT22;13731;51.166;4.474;2024-01-11T14:23:51;2.90;1.00
25933;DHT22;13731;51.166;4.474;2024-01-11T14:26:17;2.80;1.00
25933;DHT22;13731;51.166;4.474;2024-01-11T14:28:44;2.70;1.00
25933;DHT22;13731;51.166;4.474;2024-01-11T14:31:09;2.50;1.00
25933;DHT22;13731;51.166;4.474;2024-01-11T14:33:37;2.70;1.00
25933;DHT22;13731;51.166;4.474;2024-01-11T14:36:03;2.80;37.10
25933;DHT22;13731;51.166;4.474;2024-01-11T14:38:29;2.50;99.90
25933;DHT22;13731;51.166;4.474;2024-01-11T14:40:55;2.40;99.90
25933;DHT22;13731;51.166;4.474;2024-01-11T14:43:22;2.40;99.90
25933;DHT22;13731;51.166;4.474;2024-01-11T14:45:48;2.10;99.90
25933;DHT22;13731;51.166;4.474;2024-01-11T14:48:14;2.10;1.00
25933;DHT22;13731;51.166;4.474;2024-01-11T14:50:39;2.20;1.00
25933;DHT22;13731;51.166;4.474;2024-01-11T14:53:05;2.00;1.00
25933;DHT22;13731;51.166;4.474;2024-01-11T14:55:34;1.90;1.00
25933;DHT22;13731;51.166;4.474;2024-01-11T14:58:00;1.90;1.00
25933;DHT22;13731;51.166;4.474;2024-01-11T15:00:27;1.80;4.70
25933;DHT22;13731;51.166;4.474;2024-01-11T15:02:52;1.70;99.90
25933;DHT22;13731;51.166;4.474;2024-01-11T15:05:18;1.60;99.90
25933;DHT22;13731;51.166;4.474;2024-01-11T15:07:45;1.40;1.00
25933;DHT22;13731;51.166;4.474;2024-01-11T15:10:11;1.50;1.00
25933;DHT22;13731;51.166;4.474;2024-01-11T15:12:37;1.60;1.00
25933;DHT22;13731;51.166;4.474;2024-01-11T15:15:03;1.50;1.00
25933;DHT22;13731;51.166;4.474;2024-01-11T15:17:32;1.70;1.00
25933;DHT22;13731;51.166;4.474;2024-01-11T15:19:58;1.60;1.00
25933;DHT22;13731;51.166;4.474;2024-01-11T15:22:24;1.40;1.00
25933;DHT22;13731;51.166;4.474;2024-01-11T15:24:50;1.40;89.80
25933;DHT22;13731;51.166;4.474;2024-01-11T15:27:21;1.70;1.00
25933;DHT22;13731;51.166;4.474;2024-01-11T15:29:47;1.90;1.00
25933;DHT22;13731;51.166;4.474;2024-01-11T15:32:13;1.90;1.00
25933;DHT22;13731;51.166;4.474;2024-01-11T15:34:40;1.80;1.00
25933;DHT22;13731;51.166;4.474;2024-01-11T15:37:07;1.60;1.00
25933;DHT22;13731;51.166;4.474;2024-01-11T15:39:33;1.70;1.00
25933;DHT22;13731;51.166;4.474;2024-01-11T15:42:01;1.90;1.00